Time;durP1;ratioP1;P1;durP2;ratioP2;P2;SDS_P1;SDS_P2;PMS_P1;PMS_P2;Temp;Humidity;BMP_temperature;BMP_pressure;BME280_temperature;BME280_humidity;BME280_pressure;Samples;Min_cycle;Max_cycle;Signal;HPM_P1;HPM_P2
2022/01/28 00:01:00;;;;;;;;;;;23.40;43.80;;;;;;1592016;73;1890;-70
2022/01/28 00:03:09;;;;;;;;;;;23.40;43.80;;;;;;1596789;73;1608;-72
2022/01/28 00:05:16;;;;;;;;;;;23.40;43.70;;;;;;1598609;73;735;-71
2022/01/28 00:07:14;;;;;;;;;;;23.40;43.90;;;;;;1593796;73;1547;-74
2022/01/28 00:09:16;;;;;;;;;;;23.40;43.90;;;;;;1596475;73;744;-71
2022/01/28 00:11:18;;;;;;;;;;;23.40;43.90;;;;;;1598532;73;716;-71
2022/01/28 00:15:56;;;;;;;;;;;23.30;43.90;;;;;;1598634;73;852;-72
2022/01/28 00:18:16;;;;;;;;;;;23.40;43.90;;;;;;1588414;73;1933;-74
2022/01/28 00:38:33;;;;;;;;;;;23.30;44.20;;;;;;1581557;74;1886;-71
2022/01/28 00:40:33;;;;;;;;;;;23.40;44.10;;;;;;1598683;74;1091;-72
2022/01/28 00:42:35;;;;;;;;;;;23.50;44.20;;;;;;1588346;73;1139;-73
2022/01/28 00:44:36;;;;;;;;;;;23.40;44.20;;;;;;1599594;74;744;-72
2022/01/28 00:46:38;;;;;;;;;;;23.40;44.10;;;;;;1582636;74;741;-71
2022/01/28 00:48:40;;;;;;;;;;;23.40;44.20;;;;;;1580404;74;737;-71
2022/01/28 00:50:42;;;;;;;;;;;23.40;44.10;;;;;;1585268;74;778;-72
2022/01/28 00:52:44;;;;;;;;;;;23.40;44.20;;;;;;1589917;73;1138;-73
2022/01/28 00:54:46;;;;;;;;;;;23.40;44.30;;;;;;1593351;74;769;-71
2022/01/28 00:56:48;;;;;;;;;;;23.30;44.30;;;;;;1592386;74;1941;-73
2022/01/28 00:58:50;;;;;;;;;;;23.40;44.40;;;;;;1582074;73;662;-73
2022/01/28 01:00:52;;;;;;;;;;;23.40;44.40;;;;;;1589450;74;727;-75
2022/01/28 01:02:54;;;;;;;;;;;23.40;44.40;;;;;;1587190;73;1153;-72
2022/01/28 01:04:55;;;;;;;;;;;23.50;44.40;;;;;;1587076;74;779;-73
2022/01/28 01:06:57;;;;;;;;;;;23.40;44.40;;;;;;1591598;74;701;-74
2022/01/28 01:08:59;;;;;;;;;;;23.40;44.40;;;;;;1592031;74;728;-71
2022/01/28 01:11:01;;;;;;;;;;;23.50;44.50;;;;;;1578352;74;845;-71
2022/01/28 01:13:03;;;;;;;;;;;23.50;44.60;;;;;;1587160;73;1228;-76
2022/01/28 01:15:05;;;;;;;;;;;23.40;44.40;;;;;;1585180;74;712;-75
2022/01/28 01:19:23;;;;;;;;;;;23.40;44.50;;;;;;1581334;74;853;-72
2022/01/28 01:21:26;;;;;;;;;;;23.50;44.70;;;;;;1587693;74;1504;-72
2022/01/28 01:23:30;;;;;;;;;;;23.50;44.70;;;;;;1595890;73;1624;-71
2022/01/28 01:25:37;;;;;;;;;;;23.40;44.60;;;;;;1586824;74;1043;-73
2022/01/28 01:27:35;;;;;;;;;;;23.40;44.70;;;;;;1578092;74;1591;-71
2022/01/28 01:29:41;;;;;;;;;;;23.40;44.60;;;;;;1587151;74;705;-71
2022/01/28 01:31:42;;;;;;;;;;;23.50;44.70;;;;;;1590775;73;1558;-71
2022/01/28 01:34:26;;;;;;;;;;;23.40;44.70;;;;;;1584861;74;770;-71
2022/01/28 01:35:50;;;;;;;;;;;23.40;44.70;;;;;;1572151;74;1071;-73
2022/01/28 01:37:52;;;;;;;;;;;23.40;44.70;;;;;;1559363;73;3021;-79
2022/01/28 01:39:56;;;;;;;;;;;23.50;44.80;;;;;;1525991;75;782;-77
2022/01/28 01:42:10;;;;;;;;;;;23.40;44.70;;;;;;1542603;75;754;-79
2022/01/28 01:52:57;;;;;;;;;;;23.40;44.70;;;;;;1544125;77;1645;-76
2022/01/28 01:54:59;;;;;;;;;;;23.40;44.70;;;;;;1548197;75;716;-76
2022/01/28 01:57:01;;;;;;;;;;;23.30;44.70;;;;;;1547789;75;1944;-76
2022/01/28 01:59:03;;;;;;;;;;;23.50;44.90;;;;;;1535498;75;725;-80
2022/01/28 02:01:05;;;;;;;;;;;23.40;44.80;;;;;;1547509;75;710;-77
2022/01/28 02:03:06;;;;;;;;;;;23.40;44.70;;;;;;1547442;75;688;-77
2022/01/28 02:05:08;;;;;;;;;;;23.40;44.80;;;;;;1547637;77;703;-77
2022/01/28 02:07:11;;;;;;;;;;;23.40;44.80;;;;;;1547643;75;1176;-77
2022/01/28 02:09:13;;;;;;;;;;;23.40;44.70;;;;;;1550827;76;678;-79
2022/01/28 02:11:15;;;;;;;;;;;23.40;44.70;;;;;;1547516;75;689;-78
2022/01/28 02:13:17;;;;;;;;;;;23.50;44.90;;;;;;1547420;76;724;-77
2022/01/28 02:15:19;;;;;;;;;;;23.40;44.80;;;;;;1547499;75;793;-78
2022/01/28 02:17:21;;;;;;;;;;;23.40;44.80;;;;;;1547146;75;1948;-78
2022/01/28 02:19:23;;;;;;;;;;;23.40;44.90;;;;;;1542359;77;1004;-78
2022/01/28 02:21:24;;;;;;;;;;;23.40;44.80;;;;;;1546251;75;717;-76
2022/01/28 02:23:26;;;;;;;;;;;23.40;44.80;;;;;;1547424;77;705;-78
2022/01/28 02:25:30;;;;;;;;;;;23.40;44.80;;;;;;1547409;77;732;-76
2022/01/28 02:27:32;;;;;;;;;;;23.50;45.00;;;;;;1547344;75;1132;-76
2022/01/28 02:29:35;;;;;;;;;;;23.40;44.80;;;;;;1544552;75;714;-76
2022/01/28 02:31:37;;;;;;;;;;;23.40;44.80;;;;;;1542652;76;784;-76
2022/01/28 02:33:39;;;;;;;;;;;23.50;45.00;;;;;;1547463;76;727;-79
2022/01/28 02:35:42;;;;;;;;;;;23.50;45.00;;;;;;1535793;76;740;-71
2022/01/28 02:37:44;;;;;;;;;;;23.50;45.00;;;;;;1535129;77;1946;-77
2022/01/28 02:39:46;;;;;;;;;;;23.50;45.10;;;;;;1547371;75;720;-77
2022/01/28 02:41:52;;;;;;;;;;;23.40;44.90;;;;;;1547601;77;740;-77
2022/01/28 02:46:13;;;;;;;;;;;23.40;44.80;;;;;;1539040;75;808;-79
2022/01/28 02:48:23;;;;;;;;;;;23.40;44.90;;;;;;1540335;77;1186;-77
2022/01/28 02:50:19;;;;;;;;;;;23.40;44.90;;;;;;1541354;76;1226;-77
2022/01/28 02:52:30;;;;;;;;;;;23.50;45.00;;;;;;1549136;75;748;-76
2022/01/28 02:54:25;;;;;;;;;;;23.40;45.00;;;;;;1545555;76;1128;-77
2022/01/28 02:58:34;;;;;;;;;;;23.40;45.00;;;;;;1535427;76;1908;-79
2022/01/28 03:00:36;;;;;;;;;;;23.40;45.00;;;;;;1545453;75;614;-79
2022/01/28 03:02:38;;;;;;;;;;;23.40;45.00;;;;;;1539482;77;755;-77
2022/01/28 03:06:52;;;;;;;;;;;23.30;45.10;;;;;;1539084;76;1139;-77
2022/01/28 03:08:59;;;;;;;;;;;23.30;45.10;;;;;;1534621;77;653;-77
2022/01/28 03:15:32;;;;;;;;;;;23.30;45.10;;;;;;1542417;77;895;-77
2022/01/28 03:19:51;;;;;;;;;;;23.30;45.10;;;;;;1541408;77;870;-77
2022/01/28 03:21:54;;;;;;;;;;;23.40;45.10;;;;;;1525382;75;1186;-77
2022/01/28 03:23:50;;;;;;;;;;;23.40;45.10;;;;;;1548260;75;959;-76
2022/01/28 03:25:52;;;;;;;;;;;23.40;45.10;;;;;;1543080;75;736;-79
2022/01/28 03:27:56;;;;;;;;;;;23.40;45.20;;;;;;1543689;75;1176;-76
2022/01/28 03:29:57;;;;;;;;;;;23.40;45.10;;;;;;1531618;76;1138;-76
2022/01/28 03:31:59;;;;;;;;;;;23.30;45.10;;;;;;1543596;77;793;-77
2022/01/28 03:34:01;;;;;;;;;;;23.40;45.10;;;;;;1537596;77;711;-77
2022/01/28 03:36:06;;;;;;;;;;;23.40;45.10;;;;;;1544868;76;732;-76
2022/01/28 03:38:11;;;;;;;;;;;23.50;45.20;;;;;;1532023;76;1932;-79
2022/01/28 03:40:11;;;;;;;;;;;23.50;45.10;;;;;;1540662;77;959;-77
2022/01/28 03:42:12;;;;;;;;;;;23.50;45.10;;;;;;1545700;77;724;-79
2022/01/28 03:44:14;;;;;;;;;;;23.60;45.10;;;;;;1550537;75;736;-78
2022/01/28 03:46:16;;;;;;;;;;;23.60;45.00;;;;;;1542781;77;738;-78
2022/01/28 03:48:18;;;;;;;;;;;23.60;45.00;;;;;;1538353;75;1149;-80
2022/01/28 03:50:20;;;;;;;;;;;23.60;44.90;;;;;;1546440;75;724;-80
2022/01/28 03:52:22;;;;;;;;;;;23.60;45.00;;;;;;1542849;75;722;-78
2022/01/28 03:54:24;;;;;;;;;;;23.60;45.00;;;;;;1535593;77;726;-75
2022/01/28 03:56:26;;;;;;;;;;;23.60;45.00;;;;;;1541331;75;1132;-74
2022/01/28 03:58:28;;;;;;;;;;;23.70;45.00;;;;;;1527640;77;1944;-74
2022/01/28 04:00:31;;;;;;;;;;;23.80;45.10;;;;;;1533230;75;726;-73
2022/01/28 04:02:36;;;;;;;;;;;23.70;45.00;;;;;;1540444;76;692;-75
2022/01/28 04:11:31;;;;;;;;;;;23.70;45.00;;;;;;1542366;77;1607;-77
2022/01/28 04:13:32;;;;;;;;;;;23.70;45.00;;;;;;1547541;76;1123;-78
2022/01/28 04:16:30;;;;;;;;;;;23.70;45.00;;;;;;1544507;75;696;-77
2022/01/28 04:17:40;;;;;;;;;;;23.70;44.90;;;;;;1534159;74;1128;-75
2022/01/28 04:19:43;;;;;;;;;;;23.70;44.90;;;;;;1545573;76;1939;-76
2022/01/28 04:21:45;;;;;;;;;;;23.90;44.90;;;;;;1547070;76;718;-76
2022/01/28 04:23:47;;;;;;;;;;;23.80;44.90;;;;;;1546501;76;775;-80
2022/01/28 04:25:49;;;;;;;;;;;23.80;44.80;;;;;;1546046;76;728;-76
2022/01/28 04:27:51;;;;;;;;;;;23.80;44.70;;;;;;1542904;75;1125;-76
2022/01/28 04:29:53;;;;;;;;;;;23.80;44.70;;;;;;1540776;76;754;-74
2022/01/28 04:31:55;;;;;;;;;;;23.80;44.70;;;;;;1534224;75;780;-74
2022/01/28 04:33:59;;;;;;;;;;;23.80;44.60;;;;;;1542434;75;766;-76
2022/01/28 04:36:00;;;;;;;;;;;23.90;44.70;;;;;;1534079;77;1201;-78
2022/01/28 04:40:37;;;;;;;;;;;23.80;44.50;;;;;;1539184;75;880;-76
2022/01/28 04:44:53;;;;;;;;;;;23.90;44.60;;;;;;1531230;75;871;-78
2022/01/28 04:46:48;;;;;;;;;;;23.80;44.50;;;;;;1537164;77;1206;-76
2022/01/28 05:04:37;;;;;;;;;;;23.80;44.50;;;;;;1539853;77;820;-80
2022/01/28 05:06:44;;;;;;;;;;;23.90;44.50;;;;;;1539657;75;1050;-76
2022/01/28 05:10:55;;;;;;;;;;;23.80;44.30;;;;;;1547311;75;706;-74
2022/01/28 05:13:16;;;;;;;;;;;24.00;44.40;;;;;;1546109;76;985;-78
2022/01/28 05:28:22;;;;;;;;;;;23.90;44.30;;;;;;1539389;75;1161;-79
2022/01/28 05:30:22;;;;;;;;;;;23.90;44.30;;;;;;1533012;76;1143;-76
2022/01/28 05:32:24;;;;;;;;;;;24.00;44.20;;;;;;1534539;77;735;-76
2022/01/28 05:34:28;;;;;;;;;;;23.90;44.30;;;;;;1537249;77;706;-77
2022/01/28 05:36:30;;;;;;;;;;;24.00;44.30;;;;;;1540456;75;1153;-77
2022/01/28 05:38:32;;;;;;;;;;;24.00;44.30;;;;;;1528592;77;1935;-77
2022/01/28 05:40:34;;;;;;;;;;;24.00;44.20;;;;;;1534303;77;763;-74
2022/01/28 05:42:36;;;;;;;;;;;24.00;44.20;;;;;;1536002;77;696;-76
2022/01/28 05:44:37;;;;;;;;;;;24.00;44.20;;;;;;1537077;77;716;-75
2022/01/28 05:46:39;;;;;;;;;;;24.00;44.20;;;;;;1537271;75;1171;-77
2022/01/28 05:48:41;;;;;;;;;;;24.00;44.20;;;;;;1543771;77;688;-75
2022/01/28 05:50:43;;;;;;;;;;;24.00;44.20;;;;;;1540417;77;787;-76
2022/01/28 05:52:45;;;;;;;;;;;24.10;44.30;;;;;;1539068;77;779;-76
2022/01/28 05:54:47;;;;;;;;;;;24.00;44.10;;;;;;1531174;77;741;-77
2022/01/28 05:56:49;;;;;;;;;;;24.00;44.00;;;;;;1539515;75;1161;-78
2022/01/28 05:58:51;;;;;;;;;;;24.10;44.20;;;;;;1534802;75;1940;-77
2022/01/28 06:00:53;;;;;;;;;;;24.10;44.20;;;;;;1536335;75;705;-77
2022/01/28 06:02:55;;;;;;;;;;;24.10;44.10;;;;;;1547391;75;649;-79
2022/01/28 06:04:56;;;;;;;;;;;24.00;43.90;;;;;;1547446;76;698;-74
2022/01/28 06:06:58;;;;;;;;;;;24.10;44.10;;;;;;1545725;75;1161;-76
2022/01/28 06:09:00;;;;;;;;;;;24.10;44.00;;;;;;1547338;77;671;-78
2022/01/28 06:11:02;;;;;;;;;;;24.00;43.90;;;;;;1536756;76;716;-76
2022/01/28 06:13:05;;;;;;;;;;;24.00;43.90;;;;;;1546683;75;653;-73
2022/01/28 06:15:07;;;;;;;;;;;24.00;43.90;;;;;;1534307;77;820;-75
2022/01/28 06:17:09;;;;;;;;;;;24.00;44.00;;;;;;1538203;77;1147;-76
2022/01/28 06:19:11;;;;;;;;;;;24.00;43.90;;;;;;1545562;75;1939;-79
2022/01/28 06:21:13;;;;;;;;;;;24.00;43.90;;;;;;1540581;75;727;-75
2022/01/28 06:23:14;;;;;;;;;;;24.00;43.90;;;;;;1542027;76;697;-77
2022/01/28 06:25:16;;;;;;;;;;;24.10;44.00;;;;;;1542816;76;718;-79
2022/01/28 06:27:18;;;;;;;;;;;24.00;43.90;;;;;;1547409;75;1074;-74
2022/01/28 06:29:20;;;;;;;;;;;24.00;43.90;;;;;;1535503;77;668;-73
2022/01/28 06:31:22;;;;;;;;;;;24.00;44.00;;;;;;1546983;77;710;-78
2022/01/28 06:33:24;;;;;;;;;;;24.00;44.10;;;;;;1541021;76;744;-79
2022/01/28 06:35:26;;;;;;;;;;;24.00;44.00;;;;;;1543685;75;762;-77
2022/01/28 06:37:28;;;;;;;;;;;24.00;44.00;;;;;;1542154;76;1169;-77
2022/01/28 06:39:32;;;;;;;;;;;24.00;44.00;;;;;;1547409;77;1946;-78
2022/01/28 06:41:33;;;;;;;;;;;24.10;44.20;;;;;;1543076;76;1152;-78
2022/01/28 06:43:35;;;;;;;;;;;24.00;44.00;;;;;;1532656;76;687;-76
2022/01/28 06:45:39;;;;;;;;;;;24.00;44.00;;;;;;1535338;77;737;-77
2022/01/28 06:47:40;;;;;;;;;;;24.00;44.00;;;;;;1539713;75;1165;-77
2022/01/28 06:49:42;;;;;;;;;;;24.00;44.00;;;;;;1544928;75;717;-78
2022/01/28 06:51:44;;;;;;;;;;;24.10;44.10;;;;;;1547384;77;707;-80
2022/01/28 06:53:46;;;;;;;;;;;24.10;44.10;;;;;;1546359;77;739;-80
2022/01/28 06:55:49;;;;;;;;;;;24.00;43.80;;;;;;1547373;75;743;-80
2022/01/28 06:57:53;;;;;;;;;;;24.00;43.90;;;;;;1540586;75;1155;-78
2022/01/28 06:59:54;;;;;;;;;;;24.00;43.90;;;;;;1546037;75;1925;-80
2022/01/28 07:01:56;;;;;;;;;;;24.00;43.90;;;;;;1546511;75;666;-78
2022/01/28 07:04:00;;;;;;;;;;;24.00;43.90;;;;;;1538298;77;735;-80
2022/01/28 07:06:01;;;;;;;;;;;24.00;43.80;;;;;;1546522;75;1560;-78
2022/01/28 07:08:04;;;;;;;;;;;24.00;43.80;;;;;;1529416;75;1124;-80
2022/01/28 07:10:06;;;;;;;;;;;24.00;43.80;;;;;;1547996;75;723;-79
2022/01/28 07:12:08;;;;;;;;;;;23.90;43.80;;;;;;1542969;75;731;-78
2022/01/28 07:14:10;;;;;;;;;;;23.90;43.80;;;;;;1538572;76;712;-78
2022/01/28 07:16:12;;;;;;;;;;;23.90;43.80;;;;;;1546939;77;711;-78
2022/01/28 07:18:13;;;;;;;;;;;23.90;43.70;;;;;;1543340;75;1121;-80
2022/01/28 07:20:17;;;;;;;;;;;24.00;43.70;;;;;;1542689;77;1923;-78
2022/01/28 07:22:19;;;;;;;;;;;24.00;43.70;;;;;;1547645;77;732;-79
2022/01/28 07:24:21;;;;;;;;;;;23.90;43.70;;;;;;1538406;77;721;-78
2022/01/28 07:26:23;;;;;;;;;;;23.90;43.70;;;;;;1536295;75;1169;-79
2022/01/28 07:28:26;;;;;;;;;;;23.90;43.70;;;;;;1538822;77;746;-77
2022/01/28 07:30:28;;;;;;;;;;;24.00;43.60;;;;;;1547489;75;720;-78
2022/01/28 07:32:30;;;;;;;;;;;23.90;43.60;;;;;;1544393;75;729;-74
2022/01/28 07:34:32;;;;;;;;;;;24.00;43.60;;;;;;1532495;75;800;-72
2022/01/28 07:36:53;;;;;;;;;;;23.90;43.50;;;;;;1529584;75;1194;-74
2022/01/28 07:38:55;;;;;;;;;;;23.90;43.50;;;;;;1523662;77;682;-72
2022/01/28 07:40:58;;;;;;;;;;;23.80;43.20;;;;;;1527833;77;1939;-74
2022/01/28 07:43:00;;;;;;;;;;;23.80;43.00;;;;;;1518949;77;738;-74
2022/01/28 07:45:03;;;;;;;;;;;23.70;42.90;;;;;;1528319;77;697;-77
2022/01/28 07:47:05;;;;;;;;;;;23.70;42.80;;;;;;1524919;77;1227;-77
2022/01/28 07:49:07;;;;;;;;;;;23.60;42.50;;;;;;1541411;77;743;-78
2022/01/28 07:51:08;;;;;;;;;;;23.70;42.60;;;;;;1538509;77;719;-77
2022/01/28 07:53:15;;;;;;;;;;;23.60;42.20;;;;;;1537054;76;827;-77
2022/01/28 07:55:14;;;;;;;;;;;23.50;42.20;;;;;;1538592;77;1682;-73
2022/01/28 07:57:16;;;;;;;;;;;23.50;41.90;;;;;;1536427;77;1188;-76
2022/01/28 07:59:18;;;;;;;;;;;23.50;42.00;;;;;;1537396;76;1936;-77
2022/01/28 08:01:20;;;;;;;;;;;23.40;41.80;;;;;;1540524;77;731;-76
2022/01/28 08:03:22;;;;;;;;;;;23.40;41.70;;;;;;1539583;77;732;-77
2022/01/28 08:05:24;;;;;;;;;;;23.40;41.60;;;;;;1537536;77;727;-79
2022/01/28 08:07:26;;;;;;;;;;;23.30;41.50;;;;;;1537537;77;1355;-76
2022/01/28 08:09:28;;;;;;;;;;;23.30;41.40;;;;;;1536773;77;745;-78
2022/01/28 08:11:30;;;;;;;;;;;23.30;41.40;;;;;;1536232;77;678;-78
2022/01/28 08:13:32;;;;;;;;;;;23.30;41.30;;;;;;1536077;77;1155;-76
2022/01/28 08:15:34;;;;;;;;;;;23.20;41.00;;;;;;1542815;77;790;-77
2022/01/28 08:17:36;;;;;;;;;;;23.20;41.10;;;;;;1539826;77;1151;-76
2022/01/28 08:19:38;;;;;;;;;;;23.20;41.00;;;;;;1539214;77;1931;-74
2022/01/28 08:21:40;;;;;;;;;;;23.10;40.90;;;;;;1536759;77;715;-76
2022/01/28 08:23:42;;;;;;;;;;;23.10;40.70;;;;;;1540337;77;720;-77
2022/01/28 08:25:44;;;;;;;;;;;23.00;40.50;;;;;;1538386;77;721;-76
2022/01/28 08:27:46;;;;;;;;;;;23.10;40.70;;;;;;1538087;77;1151;-68
2022/01/28 08:29:48;;;;;;;;;;;23.00;40.50;;;;;;1535167;77;710;-74
2022/01/28 08:31:50;;;;;;;;;;;23.00;40.40;;;;;;1537908;77;764;-77
2022/01/28 08:33:52;;;;;;;;;;;22.90;40.20;;;;;;1541566;77;739;-77
2022/01/28 08:35:55;;;;;;;;;;;23.00;40.10;;;;;;1543498;77;693;-75
2022/01/28 08:37:57;;;;;;;;;;;23.00;40.20;;;;;;1539692;77;1191;-75
2022/01/28 08:40:00;;;;;;;;;;;22.90;40.10;;;;;;1542458;77;1931;-77
2022/01/28 08:42:02;;;;;;;;;;;22.90;40.00;;;;;;1542212;77;750;-75
2022/01/28 08:44:04;;;;;;;;;;;22.80;39.90;;;;;;1542390;77;1093;-74
2022/01/28 08:46:06;;;;;;;;;;;22.80;39.70;;;;;;1540898;77;889;-75
2022/01/28 08:48:08;;;;;;;;;;;22.80;39.70;;;;;;1542637;77;1145;-76
2022/01/28 08:50:09;;;;;;;;;;;22.80;39.50;;;;;;1539806;77;779;-75
2022/01/28 08:52:11;;;;;;;;;;;22.80;39.60;;;;;;1530090;76;676;-75
2022/01/28 08:54:13;;;;;;;;;;;22.70;39.70;;;;;;1529709;77;731;-75
2022/01/28 08:56:15;;;;;;;;;;;22.70;39.50;;;;;;1528495;77;777;-75
2022/01/28 08:58:17;;;;;;;;;;;22.80;39.50;;;;;;1530652;76;1146;-74
2022/01/28 09:00:21;;;;;;;;;;;22.70;39.40;;;;;;1531233;77;1932;-73
2022/01/28 09:02:22;;;;;;;;;;;22.70;39.40;;;;;;1543996;77;1131;-73
2022/01/28 09:04:24;;;;;;;;;;;22.70;39.60;;;;;;1531991;77;717;-73
2022/01/28 09:06:26;;;;;;;;;;;22.70;39.70;;;;;;1536881;77;779;-74
2022/01/28 09:08:28;;;;;;;;;;;22.70;39.80;;;;;;1530519;77;1138;-73
2022/01/28 09:10:30;;;;;;;;;;;22.80;40.00;;;;;;1532430;77;794;-75
2022/01/28 09:12:39;;;;;;;;;;;22.80;40.00;;;;;;1526774;77;733;-74
2022/01/28 09:14:39;;;;;;;;;;;22.80;40.10;;;;;;1530302;77;1193;-74
2022/01/28 09:16:41;;;;;;;;;;;22.80;40.20;;;;;;1544559;77;1091;-72
2022/01/28 09:18:43;;;;;;;;;;;22.80;40.20;;;;;;1542582;77;796;-74
2022/01/28 09:20:45;;;;;;;;;;;22.80;40.30;;;;;;1537718;77;1941;-74
2022/01/28 09:22:47;;;;;;;;;;;22.70;40.40;;;;;;1529849;77;720;-75
2022/01/28 09:24:48;;;;;;;;;;;22.80;40.40;;;;;;1531600;76;734;-73
2022/01/28 09:26:52;;;;;;;;;;;22.80;40.50;;;;;;1540953;77;1170;-73
2022/01/28 09:28:54;;;;;;;;;;;22.80;40.60;;;;;;1534885;77;1756;-71
2022/01/28 09:30:57;;;;;;;;;;;22.70;40.60;;;;;;1529804;77;725;-80
2022/01/28 09:32:59;;;;;;;;;;;22.70;40.70;;;;;;1535824;77;723;-73
2022/01/28 09:35:02;;;;;;;;;;;22.80;40.80;;;;;;1531623;76;724;-73
2022/01/28 09:37:04;;;;;;;;;;;22.70;40.80;;;;;;1529570;77;1161;-72
2022/01/28 09:39:07;;;;;;;;;;;22.70;40.80;;;;;;1522750;77;765;-75
2022/01/28 09:41:08;;;;;;;;;;;22.70;40.90;;;;;;1528044;77;1916;-74
2022/01/28 09:43:10;;;;;;;;;;;22.70;41.00;;;;;;1527772;77;766;-73
2022/01/28 09:45:14;;;;;;;;;;;22.70;41.00;;;;;;1530139;76;657;-74
2022/01/28 09:47:16;;;;;;;;;;;22.80;41.00;;;;;;1528755;76;1185;-74
2022/01/28 09:49:18;;;;;;;;;;;22.80;41.10;;;;;;1523073;76;708;-75
2022/01/28 09:51:21;;;;;;;;;;;22.70;41.20;;;;;;1528631;77;781;-75
2022/01/28 09:53:23;;;;;;;;;;;22.60;41.10;;;;;;1529675;76;728;-71
2022/01/28 09:55:25;;;;;;;;;;;22.70;41.30;;;;;;1528143;76;787;-74
2022/01/28 09:57:27;;;;;;;;;;;22.70;41.30;;;;;;1540338;77;1145;-75
2022/01/28 09:59:29;;;;;;;;;;;22.70;41.40;;;;;;1531711;77;705;-73
2022/01/28 10:01:31;;;;;;;;;;;22.70;41.40;;;;;;1535380;76;1950;-78
2022/01/28 10:03:33;;;;;;;;;;;22.70;41.40;;;;;;1536221;76;751;-73
2022/01/28 10:05:44;;;;;;;;;;;22.70;41.40;;;;;;1525433;77;988;-75
2022/01/28 10:08:00;;;;;;;;;;;22.70;41.50;;;;;;1541196;76;1156;-73
2022/01/28 10:10:02;;;;;;;;;;;22.70;41.50;;;;;;1516912;77;1115;-74
2022/01/28 10:12:18;;;;;;;;;;;22.70;41.50;;;;;;1535516;77;621;-73
2022/01/28 10:14:21;;;;;;;;;;;22.70;41.60;;;;;;1539468;77;1070;-77
2022/01/28 10:16:29;;;;;;;;;;;22.70;41.70;;;;;;1538748;76;1116;-72
2022/01/28 10:18:36;;;;;;;;;;;22.70;41.70;;;;;;1534245;77;1247;-73
2022/01/28 10:20:38;;;;;;;;;;;22.70;41.80;;;;;;1542774;76;1942;-73
2022/01/28 10:22:41;;;;;;;;;;;22.70;41.80;;;;;;1485903;77;1244;-74
2022/01/28 10:24:43;;;;;;;;;;;22.70;41.80;;;;;;1530036;77;1890;-73
2022/01/28 10:26:55;;;;;;;;;;;22.70;41.80;;;;;;1527316;77;1179;-73
2022/01/28 10:28:57;;;;;;;;;;;22.70;41.90;;;;;;1537643;77;970;-73
2022/01/28 10:30:59;;;;;;;;;;;22.70;41.90;;;;;;1536079;77;689;-77
2022/01/28 10:33:14;;;;;;;;;;;22.70;42.00;;;;;;1493165;77;774;-73
2022/01/28 10:35:17;;;;;;;;;;;22.80;42.00;;;;;;1538402;77;1137;-73
2022/01/28 10:37:20;;;;;;;;;;;22.80;42.10;;;;;;1539661;76;1143;-74
2022/01/28 10:39:22;;;;;;;;;;;22.80;42.00;;;;;;1530438;77;732;-73
2022/01/28 10:41:25;;;;;;;;;;;22.80;42.00;;;;;;1528342;77;1947;-74
2022/01/28 10:43:27;;;;;;;;;;;22.70;42.00;;;;;;1528082;76;727;-73
2022/01/28 10:45:31;;;;;;;;;;;22.80;42.00;;;;;;1543153;77;809;-74
2022/01/28 10:47:37;;;;;;;;;;;22.70;42.10;;;;;;1528117;76;1692;-73
2022/01/28 10:49:39;;;;;;;;;;;22.80;42.10;;;;;;1543042;77;772;-72
2022/01/28 10:51:42;;;;;;;;;;;22.80;42.10;;;;;;1530289;76;852;-72
2022/01/28 10:53:45;;;;;;;;;;;22.80;42.10;;;;;;1543103;77;684;-73
2022/01/28 10:55:53;;;;;;;;;;;22.80;42.00;;;;;;1507480;77;1412;-73
2022/01/28 10:57:58;;;;;;;;;;;22.80;42.10;;;;;;1530114;77;1538;-73
2022/01/28 10:59:59;;;;;;;;;;;22.80;42.10;;;;;;1517456;77;706;-75
2022/01/28 11:02:01;;;;;;;;;;;22.80;42.10;;;;;;1529363;77;1937;-72
2022/01/28 11:04:03;;;;;;;;;;;22.70;42.10;;;;;;1529900;75;673;-72
2022/01/28 11:06:05;;;;;;;;;;;22.80;42.10;;;;;;1531401;77;735;-74
2022/01/28 11:08:08;;;;;;;;;;;22.80;42.10;;;;;;1539905;76;1162;-75
2022/01/28 11:10:10;;;;;;;;;;;22.70;42.20;;;;;;1535698;77;769;-73
2022/01/28 11:12:11;;;;;;;;;;;22.80;42.20;;;;;;1518890;77;850;-75
2022/01/28 11:14:13;;;;;;;;;;;22.70;42.20;;;;;;1543051;77;820;-73
2022/01/28 11:16:15;;;;;;;;;;;22.70;42.20;;;;;;1540382;77;751;-74
2022/01/28 11:18:17;;;;;;;;;;;22.70;42.20;;;;;;1540301;77;1133;-72
2022/01/28 11:20:21;;;;;;;;;;;22.70;42.20;;;;;;1538075;76;1932;-76
2022/01/28 11:22:31;;;;;;;;;;;22.80;42.20;;;;;;1541326;77;715;-73
2022/01/28 11:24:34;;;;;;;;;;;22.80;42.30;;;;;;1541511;76;764;-73
2022/01/28 11:26:53;;;;;;;;;;;22.70;42.30;;;;;;1544199;76;1639;-73
2022/01/28 11:28:56;;;;;;;;;;;22.70;42.30;;;;;;1533321;77;1716;-72
2022/01/28 11:30:58;;;;;;;;;;;22.70;42.30;;;;;;1531150;77;719;-73
2022/01/28 11:33:06;;;;;;;;;;;22.70;42.40;;;;;;1530385;76;755;-72
2022/01/28 11:35:10;;;;;;;;;;;22.70;42.40;;;;;;1525275;77;1039;-72
2022/01/28 11:37:16;;;;;;;;;;;22.70;42.40;;;;;;1538617;77;1143;-75
2022/01/28 11:39:28;;;;;;;;;;;22.70;42.60;;;;;;1543061;77;806;-72
2022/01/28 11:41:30;;;;;;;;;;;22.70;42.60;;;;;;1542871;77;1936;-72
2022/01/28 11:43:32;;;;;;;;;;;22.70;42.60;;;;;;1550790;76;786;-73
2022/01/28 11:45:36;;;;;;;;;;;22.60;42.60;;;;;;1543393;76;667;-72
2022/01/28 11:47:42;;;;;;;;;;;22.70;42.60;;;;;;1529806;77;1167;-75
2022/01/28 11:49:54;;;;;;;;;;;22.70;42.70;;;;;;1516582;77;1213;-72
2022/01/28 11:51:55;;;;;;;;;;;22.60;42.60;;;;;;1542130;77;705;-72
2022/01/28 11:53:58;;;;;;;;;;;22.70;42.70;;;;;;1545459;76;745;-72
2022/01/28 11:56:03;;;;;;;;;;;22.60;42.80;;;;;;1537140;77;704;-71
2022/01/28 11:58:06;;;;;;;;;;;22.70;42.90;;;;;;1533382;76;1138;-72
2022/01/28 12:00:16;;;;;;;;;;;22.70;43.10;;;;;;1525745;77;617;-74
2022/01/28 12:02:19;;;;;;;;;;;22.60;43.10;;;;;;1527904;77;1934;-71
2022/01/28 12:04:26;;;;;;;;;;;22.70;43.30;;;;;;1536402;76;732;-72
2022/01/28 12:06:28;;;;;;;;;;;22.70;43.40;;;;;;1535965;75;717;-72
2022/01/28 12:08:30;;;;;;;;;;;22.70;43.50;;;;;;1525175;75;1185;-72
2022/01/28 12:10:35;;;;;;;;;;;22.70;43.60;;;;;;1541200;75;763;-73
2022/01/28 12:12:56;;;;;;;;;;;22.70;43.70;;;;;;1512719;77;1692;-72
2022/01/28 12:14:53;;;;;;;;;;;22.70;43.80;;;;;;1531030;77;1527;-71
2022/01/28 12:16:57;;;;;;;;;;;22.70;43.90;;;;;;1540958;77;1177;-71
2022/01/28 12:18:58;;;;;;;;;;;22.70;43.90;;;;;;1535428;77;1168;-71
2022/01/28 12:21:00;;;;;;;;;;;22.70;43.90;;;;;;1532331;77;1943;-75
2022/01/28 12:23:03;;;;;;;;;;;22.70;43.90;;;;;;1542952;77;699;-75
2022/01/28 12:25:06;;;;;;;;;;;22.70;44.00;;;;;;1532518;76;786;-75
2022/01/28 12:27:08;;;;;;;;;;;22.70;44.00;;;;;;1541080;76;1159;-75
2022/01/28 12:29:10;;;;;;;;;;;22.70;44.00;;;;;;1536994;76;791;-76
2022/01/28 12:31:14;;;;;;;;;;;22.70;44.10;;;;;;1542494;77;732;-72
2022/01/28 12:33:18;;;;;;;;;;;22.70;44.10;;;;;;1544219;77;709;-75
2022/01/28 12:35:19;;;;;;;;;;;22.70;44.20;;;;;;1542574;76;1128;-73
2022/01/28 12:37:24;;;;;;;;;;;22.70;44.10;;;;;;1534351;76;1156;-75
2022/01/28 12:39:37;;;;;;;;;;;22.60;43.60;;;;;;1532043;74;1741;-73
2022/01/28 12:41:42;;;;;;;;;;;22.60;43.60;;;;;;1531883;77;1910;-73
2022/01/28 12:43:38;;;;;;;;;;;22.70;43.80;;;;;;1537383;77;1495;-72
2022/01/28 12:45:40;;;;;;;;;;;22.70;43.90;;;;;;1541855;77;741;-70
2022/01/28 12:47:42;;;;;;;;;;;22.60;43.80;;;;;;1535411;77;1171;-72
2022/01/28 12:49:46;;;;;;;;;;;22.60;43.90;;;;;;1541271;77;1044;-72
2022/01/28 12:51:47;;;;;;;;;;;22.60;43.90;;;;;;1542916;77;820;-71
2022/01/28 12:53:54;;;;;;;;;;;22.60;43.90;;;;;;1542651;77;717;-71
2022/01/28 12:55:53;;;;;;;;;;;22.60;44.00;;;;;;1533973;76;1652;-71
2022/01/28 12:57:55;;;;;;;;;;;22.60;44.00;;;;;;1537243;76;1140;-71
2022/01/28 12:59:57;;;;;;;;;;;22.70;44.20;;;;;;1542131;77;759;-71
2022/01/28 13:01:59;;;;;;;;;;;22.60;44.20;;;;;;1538589;76;1948;-73
2022/01/28 13:04:09;;;;;;;;;;;22.60;44.10;;;;;;1533371;76;718;-71
2022/01/28 13:06:27;;;;;;;;;;;22.60;44.20;;;;;;1525880;76;1458;-71
2022/01/28 13:08:27;;;;;;;;;;;22.60;44.20;;;;;;1526606;76;1150;-72
2022/01/28 13:10:30;;;;;;;;;;;22.60;44.20;;;;;;1524775;76;706;-72
2022/01/28 13:12:32;;;;;;;;;;;22.60;44.20;;;;;;1529926;77;745;-72
2022/01/28 13:14:34;;;;;;;;;;;22.60;44.20;;;;;;1539337;77;772;-72
2022/01/28 13:16:37;;;;;;;;;;;22.60;44.20;;;;;;1539013;77;677;-73
2022/01/28 13:18:40;;;;;;;;;;;22.60;44.30;;;;;;1538433;77;1216;-71
2022/01/28 13:20:42;;;;;;;;;;;22.60;44.20;;;;;;1532845;76;1063;-73
2022/01/28 13:22:46;;;;;;;;;;;22.60;44.30;;;;;;1532645;76;1933;-71
2022/01/28 13:24:51;;;;;;;;;;;22.60;44.30;;;;;;1537766;77;1153;-74
2022/01/28 13:27:02;;;;;;;;;;;22.60;44.30;;;;;;1529278;77;1667;-71
2022/01/28 13:29:07;;;;;;;;;;;22.60;44.40;;;;;;1536429;77;705;-72
2022/01/28 13:31:09;;;;;;;;;;;22.50;44.40;;;;;;1535261;76;706;-72
2022/01/28 13:33:11;;;;;;;;;;;22.60;44.40;;;;;;1540678;77;756;-74
2022/01/28 13:35:20;;;;;;;;;;;22.60;44.40;;;;;;1531181;76;778;-71
2022/01/28 13:37:38;;;;;;;;;;;22.60;44.40;;;;;;1545178;71;2093;-78
2022/01/28 13:39:43;;;;;;;;;;;22.50;44.40;;;;;;1550367;76;734;-76
2022/01/28 13:41:47;;;;;;;;;;;22.50;44.40;;;;;;1526846;76;1919;-77